createdAt,value
2018-04-26T00:02:20.081Z,22.00
2018-04-26T00:04:46.310Z,22.00
2018-04-26T00:07:12.541Z,22.00
2018-04-26T00:09:39.484Z,22.00
2018-04-26T00:12:05.755Z,22.10
2018-04-26T00:14:32.693Z,22.00
2018-04-26T00:16:59.666Z,22.00
2018-04-26T00:19:26.689Z,22.00
2018-04-26T00:21:55.070Z,22.00
2018-04-26T00:24:21.371Z,22.00
2018-04-26T00:26:47.578Z,22.00
2018-04-26T00:29:13.824Z,22.00
2018-04-26T00:31:40.046Z,22.00
2018-04-26T00:34:06.254Z,22.00
2018-04-26T00:36:32.468Z,22.10
2018-04-26T00:38:58.700Z,22.10
2018-04-26T00:41:24.926Z,22.00
2018-04-26T00:43:51.130Z,22.10
2018-04-26T00:46:18.126Z,21.90
2018-04-26T00:48:44.361Z,21.90
2018-04-26T00:51:11.342Z,22.00
2018-04-26T00:53:37.576Z,22.00
2018-04-26T00:56:03.782Z,22.00
2018-04-26T00:58:30.001Z,22.00
2018-04-26T01:00:56.941Z,22.00
2018-04-26T01:03:23.928Z,22.00
2018-04-26T01:05:50.180Z,22.00
2018-04-26T01:08:16.412Z,22.00
2018-04-26T01:10:42.608Z,22.00
2018-04-26T01:13:09.542Z,22.00
2018-04-26T01:15:35.726Z,21.90
2018-04-26T01:18:02.770Z,22.00
2018-04-26T01:20:28.990Z,22.00
2018-04-26T01:22:55.193Z,21.90
2018-04-26T01:25:21.393Z,22.00
2018-04-26T01:27:48.342Z,22.00
2018-04-26T01:30:15.316Z,21.90
2018-04-26T01:32:42.292Z,21.90
2018-04-26T01:35:08.524Z,21.90
2018-04-26T01:37:34.746Z,21.90
2018-04-26T01:40:01.012Z,22.00
2018-04-26T01:42:27.244Z,22.00
2018-04-26T01:44:53.451Z,21.90
2018-04-26T01:47:19.652Z,22.00
2018-04-26T01:49:45.862Z,21.90
2018-04-26T01:52:12.398Z,22.00
2018-04-26T01:54:39.356Z,22.00
2018-04-26T01:57:06.316Z,22.00
2018-04-26T01:59:33.277Z,22.00
2018-04-26T02:01:59.511Z,22.00
2018-04-26T02:04:25.734Z,22.00
2018-04-26T02:06:51.953Z,22.00
2018-04-26T02:09:18.143Z,22.00
2018-04-26T02:11:45.133Z,22.00
2018-04-26T02:14:11.332Z,21.90
2018-04-26T02:16:37.568Z,21.90
2018-04-26T02:19:03.782Z,21.90
2018-04-26T02:21:30.033Z,21.90
2018-04-26T02:23:56.971Z,22.00
2018-04-26T02:26:23.930Z,22.00
2018-04-26T02:28:50.173Z,21.90
2018-04-26T02:31:16.376Z,21.90
2018-04-26T02:33:42.588Z,21.90
2018-04-26T02:36:08.775Z,22.00
2018-04-26T02:38:34.983Z,21.90
2018-04-26T02:41:01.190Z,21.90
2018-04-26T02:43:27.374Z,22.00
2018-04-26T02:45:54.349Z,22.00
2018-04-26T02:48:20.576Z,22.00
2018-04-26T02:50:46.787Z,22.00
2018-04-26T02:53:12.972Z,21.90
2018-04-26T02:55:39.179Z,22.00
2018-04-26T02:58:06.115Z,22.00
2018-04-26T03:00:32.336Z,22.00
2018-04-26T03:02:58.545Z,22.00
2018-04-26T03:05:25.508Z,22.00
2018-04-26T03:07:51.739Z,22.00
2018-04-26T03:10:17.981Z,21.90
2018-04-26T03:12:44.919Z,22.00
2018-04-26T03:15:11.881Z,22.00
2018-04-26T03:17:38.141Z,22.00
2018-04-26T03:20:04.320Z,22.00
2018-04-26T03:22:31.292Z,22.00
2018-04-26T03:24:57.484Z,22.00
2018-04-26T03:27:23.713Z,21.90
2018-04-26T03:29:49.918Z,22.00
2018-04-26T03:32:16.870Z,22.00
2018-04-26T03:34:43.851Z,22.00
2018-04-26T03:37:10.020Z,22.00
2018-04-26T03:39:37.020Z,21.90
2018-04-26T03:42:03.715Z,21.90
2018-04-26T03:44:29.920Z,21.90
2018-04-26T03:46:56.887Z,22.00
2018-04-26T03:49:23.104Z,22.00
2018-04-26T03:51:49.318Z,22.00
2018-04-26T03:54:15.537Z,22.00
2018-04-26T03:56:41.769Z,22.00
2018-04-26T03:59:07.997Z,22.00
2018-04-26T04:01:35.033Z,22.00
2018-04-26T04:04:01.157Z,21.90
2018-04-26T04:06:27.383Z,22.00
2018-04-26T04:08:53.544Z,21.90
2018-04-26T04:11:20.476Z,22.00
2018-04-26T04:13:46.754Z,21.90
2018-04-26T04:16:12.905Z,22.00
2018-04-26T04:18:39.131Z,21.90
2018-04-26T04:21:05.332Z,21.90
2018-04-26T04:23:31.532Z,22.00
2018-04-26T04:25:57.785Z,22.00
2018-04-26T04:28:23.980Z,22.00
2018-04-26T04:30:50.953Z,21.90
2018-04-26T04:33:17.187Z,21.90
2018-04-26T04:35:44.182Z,21.80
2018-04-26T04:38:10.399Z,21.80
2018-04-26T04:40:36.627Z,21.70
2018-04-26T04:43:03.579Z,21.80
2018-04-26T04:45:29.800Z,21.80
2018-04-26T04:47:55.982Z,21.70
2018-04-26T04:50:23.096Z,21.80
2018-04-26T04:52:50.354Z,21.80
2018-04-26T04:55:23.898Z,21.80
2018-04-26T04:57:50.134Z,21.80
2018-04-26T05:00:16.356Z,21.80
2018-04-26T05:02:42.622Z,21.70
2018-04-26T05:05:08.854Z,21.80
2018-04-26T05:07:35.808Z,21.80
2018-04-26T05:10:02.032Z,21.80
2018-04-26T05:12:28.261Z,21.80
2018-04-26T05:14:54.482Z,21.70
2018-04-26T05:17:20.658Z,21.70
2018-04-26T05:19:47.013Z,21.80
2018-04-26T05:22:13.294Z,21.80
2018-04-26T05:24:39.532Z,21.80
2018-04-26T05:27:05.766Z,21.80
2018-04-26T05:29:32.066Z,21.80
2018-04-26T05:31:58.312Z,21.80
2018-04-26T05:34:24.566Z,21.80
2018-04-26T05:36:50.768Z,21.70
2018-04-26T05:39:16.996Z,21.80
2018-04-26T05:41:43.341Z,21.80
2018-04-26T05:44:09.565Z,21.80
2018-04-26T05:46:35.763Z,21.80
2018-04-26T05:49:01.996Z,21.90
2018-04-26T05:51:28.202Z,21.80
2018-04-26T05:53:54.388Z,21.80
2018-04-26T05:56:20.650Z,21.80
2018-04-26T05:58:46.886Z,21.80
2018-04-26T06:01:13.184Z,21.80
2018-04-26T06:03:39.377Z,21.80
2018-04-26T06:06:05.596Z,21.70
2018-04-26T06:08:32.538Z,21.70
2018-04-26T06:10:58.768Z,21.70
2018-04-26T06:13:24.980Z,21.80
2018-04-26T06:15:51.916Z,21.80
2018-04-26T06:18:18.151Z,21.70
2018-04-26T06:20:45.129Z,21.80
2018-04-26T06:23:11.407Z,21.80
2018-04-26T06:25:37.631Z,21.80
2018-04-26T06:28:04.591Z,21.80
2018-04-26T06:30:30.787Z,21.80
2018-04-26T06:32:56.990Z,21.80
2018-04-26T06:35:23.215Z,21.90
2018-04-26T06:37:49.443Z,21.90
2018-04-26T06:40:15.670Z,21.90
2018-04-26T06:42:41.862Z,22.00
2018-04-26T06:45:08.088Z,21.90
2018-04-26T06:47:34.354Z,21.90
2018-04-26T06:50:00.587Z,21.90
2018-04-26T06:52:26.809Z,21.90
2018-04-26T06:54:52.994Z,21.80
2018-04-26T06:57:19.232Z,21.90
2018-04-26T06:59:46.210Z,21.90
2018-04-26T07:02:12.619Z,21.90
2018-04-26T07:04:38.895Z,21.90
2018-04-26T07:07:05.127Z,21.90
2018-04-26T07:09:31.343Z,21.90
2018-04-26T07:11:58.321Z,22.00
2018-04-26T07:14:24.554Z,22.00
2018-04-26T07:16:50.754Z,22.00
2018-04-26T07:19:17.003Z,22.10
2018-04-26T07:21:43.277Z,22.20
2018-04-26T07:24:09.471Z,22.20
2018-04-26T07:26:35.753Z,22.30
2018-04-26T07:29:02.728Z,22.40
2018-04-26T07:31:28.951Z,22.40
2018-04-26T07:33:55.144Z,22.40
2018-04-26T07:36:22.114Z,22.40
2018-04-26T07:38:48.368Z,22.40
2018-04-26T07:41:14.583Z,22.30
2018-04-26T07:43:41.563Z,22.30
2018-04-26T07:46:07.801Z,22.30
2018-04-26T07:48:33.991Z,22.30
2018-04-26T07:51:00.997Z,22.30
2018-04-26T07:53:27.185Z,22.30
2018-04-26T07:55:54.141Z,22.20
2018-04-26T07:58:21.107Z,22.20
2018-04-26T08:00:47.312Z,22.20
2018-04-26T08:03:13.498Z,22.30
2018-04-26T08:05:40.439Z,22.30
2018-04-26T08:08:07.421Z,22.30
2018-04-26T08:10:33.692Z,22.30
2018-04-26T08:12:59.923Z,22.30
2018-04-26T08:15:26.146Z,22.30
2018-04-26T08:17:53.121Z,22.30
2018-04-26T08:20:19.319Z,22.30
2018-04-26T08:22:45.497Z,22.40
2018-04-26T08:25:12.423Z,22.30
2018-04-26T08:27:38.632Z,22.30
2018-04-26T08:30:04.821Z,22.30
2018-04-26T08:32:31.059Z,22.40
2018-04-26T08:34:57.243Z,22.40
2018-04-26T08:37:23.462Z,22.40
2018-04-26T08:39:49.671Z,22.30
2018-04-26T08:42:15.878Z,22.30
2018-04-26T08:44:42.098Z,22.40
2018-04-26T08:47:08.294Z,22.40
2018-04-26T08:49:34.538Z,22.40
2018-04-26T08:52:00.745Z,22.40
2018-04-26T08:54:26.984Z,22.30
2018-04-26T08:56:53.191Z,22.30
2018-04-26T08:59:19.384Z,22.20
2018-04-26T09:01:45.596Z,22.30
2018-04-26T09:04:11.816Z,22.30
2018-04-26T09:06:38.114Z,22.30
2018-04-26T09:09:04.296Z,22.30
2018-04-26T09:11:31.276Z,22.20
2018-04-26T09:13:57.489Z,22.20
2018-04-26T09:16:23.680Z,22.20
2018-04-26T09:18:50.650Z,22.30
2018-04-26T09:21:17.598Z,22.30
2018-04-26T09:23:44.524Z,22.20
2018-04-26T09:26:10.752Z,22.20
2018-04-26T09:28:36.961Z,22.20
2018-04-26T09:31:03.932Z,22.10
2018-04-26T09:33:30.855Z,22.00
2018-04-26T09:35:57.859Z,22.10
2018-04-26T09:38:24.047Z,22.10
2018-04-26T09:40:50.268Z,22.10
2018-04-26T09:43:16.541Z,22.10
2018-04-26T09:45:42.703Z,22.10
2018-04-26T09:48:08.942Z,22.10
2018-04-26T09:50:35.184Z,22.10
2018-04-26T09:53:01.414Z,22.10
2018-04-26T09:55:27.665Z,22.10
2018-04-26T09:57:53.922Z,22.10
2018-04-26T10:00:26.972Z,22.10
2018-04-26T10:02:53.230Z,22.10
2018-04-26T10:05:20.204Z,22.10
2018-04-26T10:07:46.432Z,22.10
2018-04-26T10:10:14.421Z,22.20
2018-04-26T10:12:40.639Z,22.20
2018-04-26T10:15:06.936Z,22.20
2018-04-26T10:17:33.081Z,22.10
2018-04-26T10:19:59.309Z,22.20
2018-04-26T10:22:26.282Z,22.10
2018-04-26T10:24:52.514Z,22.20
2018-04-26T10:27:18.744Z,22.10
2018-04-26T10:29:44.966Z,22.10
2018-04-26T10:32:12.220Z,22.10
2018-04-26T10:34:38.474Z,22.10
2018-04-26T10:37:04.704Z,22.00
2018-04-26T10:39:31.678Z,22.10
2018-04-26T10:41:58.283Z,22.00
2018-04-26T10:44:25.264Z,22.10
2018-04-26T10:46:51.446Z,22.10
2018-04-26T10:49:18.405Z,22.10
2018-04-26T10:51:44.635Z,22.00
2018-04-26T10:54:11.596Z,22.10
2018-04-26T10:56:38.527Z,22.10
2018-04-26T10:59:05.493Z,22.10
2018-04-26T11:01:31.721Z,22.00
2018-04-26T11:03:57.940Z,22.10
2018-04-26T11:06:24.151Z,22.10
2018-04-26T11:08:50.344Z,22.00
2018-04-26T11:11:16.538Z,22.00
2018-04-26T11:13:43.540Z,22.00
2018-04-26T11:16:09.784Z,22.00
2018-04-26T11:18:36.003Z,22.00
2018-04-26T11:21:02.208Z,22.00
2018-04-26T11:23:28.420Z,22.00
2018-04-26T11:25:54.637Z,22.00
2018-04-26T11:28:21.590Z,22.00
2018-04-26T11:30:47.842Z,22.00
2018-04-26T11:33:14.088Z,22.00
2018-04-26T11:35:40.284Z,22.10
2018-04-26T11:38:07.212Z,22.10
2018-04-26T11:40:34.170Z,22.00
2018-04-26T11:43:00.377Z,22.00
2018-04-26T11:45:27.312Z,22.00
2018-04-26T11:47:53.522Z,22.10
2018-04-26T11:50:19.727Z,22.10
2018-04-26T11:52:45.977Z,22.10
2018-04-26T11:55:12.996Z,22.00
2018-04-26T11:57:39.213Z,22.10
2018-04-26T12:00:05.443Z,22.00
2018-04-26T12:02:31.740Z,22.00
2018-04-26T12:04:58.646Z,22.00
2018-04-26T12:07:24.905Z,22.10
2018-04-26T12:09:51.137Z,22.00
2018-04-26T12:12:17.383Z,22.10
2018-04-26T12:14:43.645Z,22.10
2018-04-26T12:17:09.961Z,22.10
2018-04-26T12:19:36.210Z,22.10
2018-04-26T12:22:03.323Z,22.10
2018-04-26T12:24:30.649Z,22.10
2018-04-26T12:26:57.045Z,22.10
2018-04-26T12:29:23.496Z,22.10
2018-04-26T12:31:49.834Z,22.10
2018-04-26T12:34:16.941Z,22.10
2018-04-26T12:36:43.389Z,22.10
2018-04-26T12:39:09.826Z,22.10
2018-04-26T12:41:36.194Z,22.10
2018-04-26T12:44:02.567Z,22.10
2018-04-26T12:46:29.630Z,22.10
2018-04-26T12:48:56.059Z,22.10
2018-04-26T12:51:22.419Z,22.10
2018-04-26T12:53:48.757Z,22.10
2018-04-26T12:56:15.089Z,22.10
2018-04-26T12:58:41.475Z,22.10
2018-04-26T13:01:08.616Z,22.20
2018-04-26T13:03:35.000Z,22.10
2018-04-26T13:06:01.392Z,22.10
2018-04-26T13:08:27.789Z,22.10
2018-04-26T13:10:54.919Z,22.10
2018-04-26T13:13:21.314Z,22.10
2018-04-26T13:15:47.672Z,22.10
2018-04-26T13:18:14.014Z,22.10
2018-04-26T13:20:40.405Z,22.10
2018-04-26T13:23:07.649Z,22.10
2018-04-26T13:25:34.128Z,22.10
2018-04-26T13:28:00.441Z,22.10
2018-04-26T13:30:26.916Z,22.10
2018-04-26T13:32:53.353Z,22.10
2018-04-26T13:35:20.464Z,22.10
2018-04-26T13:37:46.911Z,22.00
2018-04-26T13:40:14.221Z,23.30
2018-04-26T13:42:40.588Z,22.10
2018-04-26T13:45:06.920Z,22.10
2018-04-26T13:47:33.344Z,22.10
2018-04-26T13:49:59.668Z,22.10
2018-04-26T13:52:26.000Z,22.10
2018-04-26T13:54:52.374Z,22.10
2018-04-26T13:57:18.764Z,22.10
2018-04-26T13:59:45.135Z,22.10
2018-04-26T14:02:11.499Z,22.00
2018-04-26T14:04:37.858Z,22.10
2018-04-26T14:07:04.968Z,22.10
2018-04-26T14:09:31.540Z,22.10
2018-04-26T14:11:58.648Z,22.10
2018-04-26T14:14:24.986Z,22.10
2018-04-26T14:16:51.412Z,22.10
2018-04-26T14:19:17.781Z,22.10
2018-04-26T14:21:44.983Z,22.00
2018-04-26T14:24:11.202Z,22.00
2018-04-26T14:26:37.420Z,22.10
2018-04-26T14:29:03.646Z,22.10
2018-04-26T14:31:29.972Z,22.00
2018-04-26T14:33:56.933Z,22.10
2018-04-26T14:36:23.922Z,22.10
2018-04-26T14:38:50.862Z,22.10
2018-04-26T14:41:17.089Z,22.10
2018-04-26T14:43:43.305Z,22.10
2018-04-26T14:46:09.548Z,22.00
2018-04-26T14:48:35.772Z,22.00
2018-04-26T14:51:02.012Z,22.00
2018-04-26T14:53:28.210Z,22.00
2018-04-26T14:55:54.388Z,22.00
2018-04-26T14:58:21.343Z,22.00
2018-04-26T15:00:47.538Z,22.00
2018-04-26T15:03:13.737Z,22.00
2018-04-26T15:05:39.952Z,22.00
2018-04-26T15:08:06.160Z,22.00
2018-04-26T15:10:32.425Z,22.00
2018-04-26T15:12:58.681Z,22.00
2018-04-26T15:15:24.954Z,21.90
2018-04-26T15:17:51.154Z,22.00
2018-04-26T15:20:17.351Z,22.00
2018-04-26T15:22:43.557Z,21.90
2018-04-26T15:25:09.752Z,21.90
2018-04-26T15:27:35.939Z,21.90
2018-04-26T15:30:02.159Z,21.90
2018-04-26T15:32:28.378Z,22.00
2018-04-26T15:34:54.594Z,21.90
2018-04-26T15:37:20.794Z,22.00
2018-04-26T15:39:47.785Z,21.90
2018-04-26T15:42:13.994Z,21.90
2018-04-26T15:44:40.276Z,21.90
2018-04-26T15:47:06.424Z,21.90
2018-04-26T15:49:32.659Z,21.90
2018-04-26T15:51:59.608Z,21.90
2018-04-26T15:54:25.838Z,21.90
2018-04-26T15:56:52.844Z,21.90
2018-04-26T15:59:19.073Z,21.90
2018-04-26T16:01:45.342Z,21.90
2018-04-26T16:04:12.322Z,21.90
2018-04-26T16:06:38.557Z,21.90
2018-04-26T16:09:04.792Z,21.90
2018-04-26T16:11:31.125Z,21.90
2018-04-26T16:14:04.186Z,21.80
2018-04-26T16:16:36.434Z,21.80
2018-04-26T16:19:02.668Z,21.90
2018-04-26T16:21:34.858Z,21.80
2018-04-26T16:24:03.153Z,21.80
2018-04-26T16:26:29.360Z,21.80
2018-04-26T16:29:16.598Z,21.80
2018-04-26T16:31:49.384Z,21.90
2018-04-26T16:34:15.599Z,21.90
2018-04-26T16:36:41.821Z,21.90
2018-04-26T16:39:08.048Z,21.90
2018-04-26T16:41:34.756Z,21.90
2018-04-26T16:44:01.018Z,21.80
2018-04-26T16:46:27.253Z,21.70
2018-04-26T16:48:53.514Z,21.80
2018-04-26T16:51:20.143Z,21.80
2018-04-26T16:53:47.548Z,21.80
2018-04-26T16:56:13.777Z,21.80
2018-04-26T16:58:41.870Z,21.80
2018-04-26T17:01:08.087Z,21.80
2018-04-26T17:03:34.311Z,21.80
2018-04-26T17:06:00.519Z,21.70
2018-04-26T17:08:28.458Z,21.70
2018-04-26T17:10:58.702Z,21.70
2018-04-26T17:13:28.452Z,21.80
2018-04-26T17:15:54.647Z,21.80
2018-04-26T17:18:20.869Z,21.80
2018-04-26T17:23:22.904Z,21.80
2018-04-26T17:25:50.028Z,21.70
2018-04-26T17:28:17.047Z,21.70
2018-04-26T17:30:43.232Z,21.70
2018-04-26T17:33:09.466Z,21.80
2018-04-26T17:35:35.683Z,21.80
2018-04-26T17:38:01.875Z,21.80
2018-04-26T17:40:28.824Z,21.80
2018-04-26T17:42:55.041Z,21.80
2018-04-26T17:45:21.244Z,21.80
2018-04-26T17:47:47.483Z,21.80
2018-04-26T17:50:13.662Z,21.80
2018-04-26T17:52:39.876Z,21.80
2018-04-26T17:55:06.097Z,21.80
2018-04-26T17:57:32.333Z,21.80
2018-04-26T17:59:58.555Z,21.80
2018-04-26T18:02:25.536Z,21.70
2018-04-26T18:04:51.707Z,21.70
2018-04-26T18:07:17.938Z,21.70
2018-04-26T18:09:44.175Z,21.70
2018-04-26T18:12:11.132Z,21.70
2018-04-26T18:14:37.454Z,21.70
2018-04-26T18:17:04.661Z,21.70
2018-04-26T18:19:31.198Z,21.70
2018-04-26T18:25:00.168Z,21.80
2018-04-26T18:27:31.784Z,21.80
2018-04-26T18:29:59.020Z,21.80
2018-04-26T18:32:31.715Z,21.80
2018-04-26T18:35:00.648Z,21.70
2018-04-26T18:37:27.300Z,21.70
2018-04-26T18:39:54.332Z,21.70
2018-04-26T18:42:40.278Z,21.70
2018-04-26T18:45:07.300Z,21.70
2018-04-26T18:47:33.480Z,21.70
2018-04-26T18:49:59.722Z,21.70
2018-04-26T18:55:01.124Z,21.70
2018-04-26T18:57:27.414Z,21.70
2018-04-26T18:59:55.261Z,21.70
2018-04-26T19:02:23.376Z,21.70
2018-04-26T19:04:50.589Z,21.70
2018-04-26T19:07:16.869Z,21.70
2018-04-26T19:09:43.179Z,21.70
2018-04-26T19:12:11.907Z,21.70
2018-04-26T19:14:39.261Z,21.70
2018-04-26T19:17:05.453Z,21.60
2018-04-26T19:19:31.633Z,21.60
2018-04-26T19:21:58.260Z,21.60
2018-04-26T19:24:24.503Z,21.60
2018-04-26T19:26:51.476Z,21.60
2018-04-26T19:29:18.450Z,21.60
2018-04-26T19:31:44.686Z,21.60
2018-04-26T19:34:10.928Z,21.60
2018-04-26T19:36:37.122Z,21.60
2018-04-26T19:39:03.391Z,21.60
2018-04-26T19:41:29.597Z,21.60
2018-04-26T19:43:55.845Z,21.60
2018-04-26T19:46:22.056Z,21.60
2018-04-26T19:48:48.268Z,21.60
2018-04-26T19:51:15.208Z,21.60
2018-04-26T19:53:41.487Z,21.60
2018-04-26T19:56:07.728Z,21.60
2018-04-26T19:58:34.687Z,21.50
2018-04-26T20:01:00.897Z,21.60
2018-04-26T20:03:27.094Z,21.50
2018-04-26T20:05:53.346Z,21.60
2018-04-26T20:08:19.545Z,21.60
2018-04-26T20:10:47.491Z,21.60
2018-04-26T20:13:14.435Z,21.60
2018-04-26T20:15:43.149Z,21.60
2018-04-26T20:18:09.353Z,21.60
2018-04-26T20:20:36.282Z,21.70
2018-04-26T20:23:03.231Z,21.70
2018-04-26T20:25:30.176Z,21.70
2018-04-26T20:28:04.101Z,21.80
2018-04-26T20:30:30.607Z,21.70
2018-04-26T20:32:56.813Z,21.80
2018-04-26T20:35:23.002Z,21.80
2018-04-26T20:37:50.495Z,21.80
2018-04-26T20:40:17.426Z,21.80
2018-04-26T20:42:43.635Z,21.80
2018-04-26T20:45:10.556Z,21.70
2018-04-26T20:47:39.435Z,21.80
2018-04-26T20:50:05.623Z,21.80
2018-04-26T20:52:36.689Z,21.70
2018-04-26T20:55:05.990Z,21.70
2018-04-26T20:57:32.223Z,21.70
2018-04-26T20:59:58.445Z,21.70
2018-04-26T21:02:25.455Z,21.70
2018-04-26T21:04:51.829Z,21.70
2018-04-26T21:07:18.788Z,21.70
2018-04-26T21:09:44.984Z,21.70
2018-04-26T21:12:11.202Z,21.70
2018-04-26T21:14:37.436Z,21.70
2018-04-26T21:17:04.406Z,21.80
2018-04-26T21:19:30.632Z,21.70
2018-04-26T21:21:56.823Z,21.70
2018-04-26T21:24:23.037Z,21.70
2018-04-26T21:26:50.096Z,21.70
2018-04-26T21:29:16.386Z,21.70
2018-04-26T21:31:43.327Z,21.70
2018-04-26T21:34:09.551Z,21.70
2018-04-26T21:36:36.534Z,21.70
2018-04-26T21:39:02.748Z,21.70
2018-04-26T21:41:29.691Z,21.70
2018-04-26T21:43:56.667Z,21.70
2018-04-26T21:46:22.886Z,21.70
2018-04-26T21:48:49.133Z,21.70
2018-04-26T21:51:21.423Z,21.70
2018-04-26T21:53:55.799Z,21.70
2018-04-26T21:56:28.972Z,21.70
2018-04-26T21:59:01.263Z,21.70
2018-04-26T22:06:52.461Z,21.70
2018-04-26T22:09:19.332Z,21.60
2018-04-26T22:14:31.729Z,21.60
2018-04-26T22:16:59.133Z,21.60
2018-04-26T22:19:25.293Z,21.60
2018-04-26T22:25:01.081Z,21.60
2018-04-26T22:27:27.213Z,21.60
2018-04-26T22:29:53.343Z,21.60
2018-04-26T22:32:20.013Z,21.60
2018-04-26T22:34:46.978Z,21.60
2018-04-26T22:37:13.140Z,21.60
2018-04-26T22:39:39.270Z,21.60
2018-04-26T22:44:45.832Z,21.60
2018-04-26T22:47:11.970Z,21.60
2018-04-26T22:49:38.874Z,21.60
2018-04-26T22:52:05.042Z,21.60
2018-04-26T22:54:31.215Z,21.60
2018-04-26T22:56:57.395Z,21.60
2018-04-26T22:59:23.538Z,21.60
2018-04-26T23:01:49.696Z,21.50
2018-04-26T23:04:15.859Z,21.50
2018-04-26T23:06:42.024Z,21.50
2018-04-26T23:09:08.208Z,21.50
2018-04-26T23:11:34.394Z,21.50
2018-04-26T23:14:00.558Z,21.60
2018-04-26T23:16:26.728Z,21.50
2018-04-26T23:18:52.868Z,21.50
2018-04-26T23:21:19.005Z,21.50
2018-04-26T23:23:45.155Z,21.50
2018-04-26T23:26:11.301Z,21.50
2018-04-26T23:28:37.463Z,21.50
2018-04-26T23:31:04.345Z,21.50
2018-04-26T23:33:30.486Z,21.50
2018-04-26T23:35:56.665Z,21.50
2018-04-26T23:38:23.585Z,21.50
2018-04-26T23:40:49.719Z,22.40
2018-04-26T23:43:15.897Z,21.50
2018-04-26T23:45:42.047Z,21.40
2018-04-26T23:48:08.185Z,21.50
2018-04-26T23:50:35.109Z,21.50
2018-04-26T23:53:01.259Z,21.50
2018-04-26T23:55:28.161Z,21.40
2018-04-26T23:57:54.286Z,21.40
